Time;durP1;ratioP1;P1;durP2;ratioP2;P2;SDS_P1;SDS_P2;PMS_P1;PMS_P2;Temp;Humidity;BMP_temperature;BMP_pressure;BME280_temperature;BME280_humidity;BME280_pressure;Samples;Min_cycle;Max_cycle;Signal;HPM_P1;HPM_P2
2022/08/31 00:08:53;;;;;;;13.88;12.48;;;26.60;65.50;;;;;;4737129;55;20991;-26
2022/08/31 00:13:56;;;;;;;12.45;11.18;;;26.60;65.50;;;;;;4739211;55;21011;-32
2022/08/31 00:18:56;;;;;;;13.13;11.82;;;26.60;65.50;;;;;;4772599;55;21007;-38
2022/08/31 00:23:58;;;;;;;12.63;11.43;;;26.60;65.50;;;;;;4764343;55;22202;-30
2022/08/31 00:28:59;;;;;;;12.85;11.55;;;26.60;65.50;;;;;;4768287;55;20972;-34
2022/08/31 00:34:00;;;;;;;12.85;11.52;;;26.60;65.40;;;;;;4736484;59;21043;-36
2022/08/31 00:39:00;;;;;;;12.30;11.02;;;26.60;65.40;;;;;;4735583;59;21063;-29
2022/08/31 00:44:05;;;;;;;11.95;10.82;;;26.60;65.50;;;;;;4758614;55;21028;-25
2022/08/31 00:49:18;;;;;;;12.80;11.50;;;26.60;65.40;;;;;;4743592;55;21118;-27
2022/08/31 00:54:29;;;;;;;12.48;11.30;;;26.60;65.30;;;;;;4736526;55;20964;-26
2022/08/31 00:59:30;;;;;;;11.95;10.85;;;26.60;65.30;;;;;;4805214;55;21016;-27
2022/08/31 01:04:31;;;;;;;13.15;11.65;;;26.60;65.30;;;;;;4784146;55;21031;-34
2022/08/31 01:09:36;;;;;;;11.77;10.68;;;26.60;65.30;;;;;;4754808;55;20996;-37
2022/08/31 01:14:38;;;;;;;12.07;10.85;;;26.60;65.30;;;;;;4749013;55;20999;-37
2022/08/31 01:19:48;;;;;;;12.23;11.02;;;26.60;65.20;;;;;;4771746;55;20991;-36
2022/08/31 01:24:50;;;;;;;11.90;10.68;;;26.60;65.20;;;;;;4752219;55;21055;-25
2022/08/31 01:29:50;;;;;;;11.70;10.60;;;26.60;65.20;;;;;;4757408;55;21000;-31
2022/08/31 01:34:51;;;;;;;11.95;10.65;;;26.60;65.20;;;;;;4757889;55;21086;-30
2022/08/31 01:39:52;;;;;;;12.55;11.00;;;26.60;65.20;;;;;;4735329;59;20987;-25
2022/08/31 01:44:53;;;;;;;12.32;11.15;;;26.60;65.10;;;;;;4744901;55;20983;-29
2022/08/31 01:49:53;;;;;;;11.57;10.48;;;26.60;65.80;;;;;;4739680;55;21075;-24
2022/08/31 01:54:55;;;;;;;11.95;10.75;;;26.60;65.10;;;;;;4769585;55;21031;-25
2022/08/31 01:59:59;;;;;;;11.48;10.45;;;26.60;65.10;;;;;;4784564;55;21477;-28
2022/08/31 02:05:00;;;;;;;11.60;10.40;;;26.60;65.10;;;;;;4748266;55;21568;-29
2022/08/31 02:10:01;;;;;;;11.80;10.60;;;26.60;65.10;;;;;;4737609;55;21026;-30
2022/08/31 02:15:02;;;;;;;12.05;10.85;;;26.60;65.10;;;;;;4736178;59;20983;-27
2022/08/31 02:20:05;;;;;;;11.80;10.48;;;26.60;65.10;;;;;;4755432;55;21079;-29
2022/08/31 02:25:08;;;;;;;11.95;10.80;;;26.60;65.10;;;;;;4751592;55;21007;-31
2022/08/31 02:30:15;;;;;;;11.70;10.60;;;26.60;65.10;;;;;;4749801;55;20971;-30
2022/08/31 02:35:16;;;;;;;11.10;10.10;;;26.60;65.10;;;;;;4740227;55;20983;-29
2022/08/31 02:40:16;;;;;;;10.55;9.48;;;26.60;65.00;;;;;;4735339;59;21015;-35
2022/08/31 02:45:17;;;;;;;11.60;10.60;;;26.60;65.00;;;;;;4776165;55;21016;-34
2022/08/31 02:50:18;;;;;;;11.10;10.00;;;26.50;65.00;;;;;;4736304;59;21051;-26
2022/08/31 02:55:20;;;;;;;11.30;10.10;;;26.60;65.00;;;;;;4736360;59;21600;-36
2022/08/31 03:00:22;;;;;;;10.68;9.68;;;26.50;64.90;;;;;;4748882;55;21442;-37
2022/08/31 03:05:24;;;;;;;11.75;10.57;;;26.60;64.90;;;;;;4764565;55;21501;-37
2022/08/31 03:10:25;;;;;;;11.55;10.38;;;26.50;64.90;;;;;;4782259;55;21047;-37
2022/08/31 03:15:27;;;;;;;10.85;9.85;;;26.60;64.90;;;;;;4772177;55;21396;-32
2022/08/31 03:20:28;;;;;;;10.75;9.75;;;26.50;64.70;;;;;;4785240;55;21102;-28
2022/08/31 03:25:29;;;;;;;10.75;9.73;;;26.60;64.80;;;;;;4756118;55;21062;-32
2022/08/31 03:30:32;;;;;;;10.45;9.48;;;26.60;64.80;;;;;;4797120;55;20993;-28
2022/08/31 03:35:33;;;;;;;12.23;10.77;;;26.50;64.70;;;;;;4759320;55;20999;-26
2022/08/31 03:40:34;;;;;;;10.63;9.65;;;26.60;64.70;;;;;;4756980;55;21083;-26
2022/08/31 03:45:39;;;;;;;11.32;10.23;;;26.50;64.50;;;;;;4751407;55;21070;-26
2022/08/31 03:50:41;;;;;;;10.70;9.70;;;26.50;64.60;;;;;;4736774;59;21082;-35
2022/08/31 03:55:44;;;;;;;10.60;9.52;;;26.50;64.60;;;;;;4765717;55;21122;-35
2022/08/31 04:00:45;;;;;;;10.35;9.45;;;26.60;64.50;;;;;;4748988;55;21106;-33
2022/08/31 04:05:46;;;;;;;11.45;10.25;;;26.50;64.50;;;;;;4735627;59;21513;-26
2022/08/31 04:10:50;;;;;;;10.77;9.77;;;26.50;64.50;;;;;;4740920;55;20996;-28
2022/08/31 04:15:50;;;;;;;10.73;9.73;;;26.50;64.30;;;;;;4771279;55;20988;-30
2022/08/31 04:20:51;;;;;;;10.25;9.20;;;26.50;64.30;;;;;;4744774;55;21040;-39
2022/08/31 04:25:52;;;;;;;11.18;10.13;;;26.50;64.40;;;;;;4761653;55;21927;-35
2022/08/31 04:30:53;;;;;;;10.88;9.85;;;26.50;65.10;;;;;;4747951;55;20976;-32
2022/08/31 04:35:54;;;;;;;10.32;9.20;;;26.50;64.40;;;;;;4776727;55;21030;-26
2022/08/31 04:40:57;;;;;;;10.60;9.43;;;26.50;65.00;;;;;;4768542;55;21032;-28
2022/08/31 04:45:58;;;;;;;10.65;9.55;;;26.50;64.30;;;;;;4764213;55;21014;-34
2022/08/31 04:51:08;;;;;;;10.50;9.57;;;26.50;64.30;;;;;;4736289;59;21445;-36
2022/08/31 04:56:25;;;;;;;10.15;9.07;;;26.50;64.90;;;;;;4741485;55;21055;-36
2022/08/31 05:01:28;;;;;;;11.02;9.98;;;26.50;64.20;;;;;;4803953;55;21092;-26
2022/08/31 05:06:31;;;;;;;11.02;9.95;;;26.50;64.10;;;;;;4744861;55;21024;-34
2022/08/31 05:11:33;;;;;;;11.05;9.95;;;26.50;64.10;;;;;;4744909;55;21075;-33
2022/08/31 05:16:37;;;;;;;11.02;9.93;;;26.50;64.20;;;;;;4738385;55;21036;-27
2022/08/31 05:21:41;;;;;;;10.85;9.52;;;26.50;64.10;;;;;;4747319;55;21541;-34
2022/08/31 05:26:47;;;;;;;11.00;9.80;;;26.50;64.10;;;;;;4759599;55;21042;-26
2022/08/31 05:31:49;;;;;;;11.85;10.65;;;26.40;64.00;;;;;;4761613;55;21071;-33
2022/08/31 05:36:52;;;;;;;11.77;10.68;;;26.50;64.00;;;;;;4800386;55;21063;-29
2022/08/31 05:41:53;;;;;;;11.50;10.40;;;26.50;63.90;;;;;;4759579;55;20984;-31
2022/08/31 05:46:54;;;;;;;13.13;10.60;;;26.50;64.00;;;;;;4750951;55;22155;-33
2022/08/31 05:51:55;;;;;;;11.25;9.93;;;26.40;63.90;;;;;;4736711;55;21616;-34
2022/08/31 05:56:56;;;;;;;11.60;10.50;;;26.50;63.90;;;;;;4744812;55;21584;-37
2022/08/31 06:01:58;;;;;;;12.40;11.12;;;26.40;63.80;;;;;;4792478;55;20987;-32
2022/08/31 06:06:59;;;;;;;11.55;10.35;;;26.50;63.90;;;;;;4831935;55;21031;-33
2022/08/31 06:11:59;;;;;;;12.48;11.18;;;26.40;63.80;;;;;;4736430;55;20983;-27
2022/08/31 06:17:00;;;;;;;12.40;11.10;;;26.40;63.80;;;;;;4748474;55;21027;-31
2022/08/31 06:22:01;;;;;;;12.13;10.88;;;26.50;63.90;;;;;;4736534;59;20996;-24
2022/08/31 06:27:04;;;;;;;12.25;11.05;;;26.40;63.70;;;;;;4749044;55;21059;-28
2022/08/31 06:32:09;;;;;;;12.30;11.00;;;26.40;63.80;;;;;;4759521;55;21083;-26
2022/08/31 06:37:11;;;;;;;11.52;10.35;;;26.40;63.70;;;;;;4738922;55;21075;-36
2022/08/31 06:42:12;;;;;;;13.25;11.90;;;26.40;63.80;;;;;;4736507;59;21027;-36
2022/08/31 06:47:13;;;;;;;11.60;10.55;;;26.40;63.80;;;;;;4753575;55;21011;-28
2022/08/31 06:52:14;;;;;;;11.93;10.82;;;26.40;63.70;;;;;;4738958;55;21003;-27
2022/08/31 06:57:15;;;;;;;11.68;10.55;;;26.40;63.70;;;;;;4769005;55;21047;-29
2022/08/31 07:02:16;;;;;;;30.85;20.98;;;26.40;63.70;;;;;;4737557;55;21059;-29
2022/08/31 07:07:16;;;;;;;36.95;29.10;;;26.40;62.80;;;;;;4760032;55;21023;-35
2022/08/31 07:12:17;;;;;;;36.30;26.30;;;26.30;62.70;;;;;;4749726;55;20999;-31
2022/08/31 07:17:18;;;;;;;32.80;22.08;;;26.30;62.70;;;;;;4738266;55;21433;-29
2022/08/31 07:22:19;;;;;;;27.87;22.10;;;26.20;62.60;;;;;;4740352;55;20995;-34
2022/08/31 07:27:19;;;;;;;40.08;28.30;;;26.20;62.60;;;;;;4734478;59;20996;-33
2022/08/31 07:32:21;;;;;;;36.65;27.25;;;26.20;62.70;;;;;;4755934;55;20980;-33
2022/08/31 07:42:45;;;;;;;50.03;37.88;;;26.30;62.60;;;;;;4736001;55;21126;-29
2022/08/31 07:47:47;;;;;;;50.05;35.95;;;26.30;62.30;;;;;;4786224;55;21453;-35
2022/08/31 07:52:52;;;;;;;59.83;41.58;;;26.40;62.40;;;;;;4736578;59;21580;-31
2022/08/31 07:57:54;;;;;;;57.55;40.50;;;26.40;62.70;;;;;;4744525;55;21505;-31
2022/08/31 08:02:56;;;;;;;54.03;39.88;;;26.40;62.40;;;;;;4748393;55;21000;-27
2022/08/31 08:08:04;;;;;;;59.72;39.63;;;26.40;62.20;;;;;;4760080;55;21584;-35
2022/08/31 08:13:05;;;;;;;54.40;39.13;;;26.40;62.70;;;;;;4761704;55;21079;-33
2022/08/31 08:18:06;;;;;;;61.72;43.45;;;26.40;62.40;;;;;;4786034;55;21854;-33
2022/08/31 08:23:13;;;;;;;58.85;42.40;;;26.50;62.70;;;;;;4757676;55;21079;-30
2022/08/31 08:28:19;;;;;;;58.47;39.42;;;26.50;63.40;;;;;;4732840;59;21058;-30
2022/08/31 08:33:20;;;;;;;58.73;40.87;;;26.50;62.60;;;;;;4752305;55;21608;-33
2022/08/31 08:38:23;;;;;;;55.22;39.63;;;26.60;62.60;;;;;;4785338;55;21215;-33
2022/08/31 08:43:32;;;;;;;55.92;40.38;;;26.60;62.50;;;;;;4744439;55;21035;-27
2022/08/31 08:48:37;;;;;;;53.45;40.60;;;26.60;62.40;;;;;;4736082;59;21071;-31
2022/08/31 08:53:41;;;;;;;53.87;39.95;;;26.70;62.50;;;;;;4758207;55;21525;-35
2022/08/31 08:58:44;;;;;;;55.72;42.38;;;26.70;62.50;;;;;;4761029;55;21965;-31
2022/08/31 09:04:15;;;;;;;51.17;39.00;;;26.70;62.50;;;;;;4736084;59;21514;-33
2022/08/31 09:09:48;;;;;;;49.90;36.67;;;26.70;62.40;;;;;;4763584;55;21663;-29
2022/08/31 09:15:16;;;;;;;47.88;36.17;;;26.70;62.40;;;;;;4752490;55;21007;-31
2022/08/31 09:20:17;;;;;;;51.63;36.28;;;26.70;62.60;;;;;;4756426;55;21469;-30
2022/08/31 09:25:31;;;;;;;48.67;35.35;;;26.80;62.70;;;;;;4736206;59;21516;-30
2022/08/31 09:30:50;;;;;;;50.10;34.47;;;26.80;62.70;;;;;;4744845;55;21497;-33
2022/08/31 09:35:57;;;;;;;45.60;34.13;;;26.80;62.80;;;;;;4738808;55;21435;-33
2022/08/31 09:40:58;;;;;;;51.15;36.40;;;26.80;62.90;;;;;;4734701;59;21533;-33
2022/08/31 09:46:11;;;;;;;52.50;37.72;;;26.90;63.70;;;;;;4757007;55;21601;-33
2022/08/31 09:51:26;;;;;;;62.40;39.10;;;26.90;63.20;;;;;;4755162;55;21051;-35
2022/08/31 09:56:28;;;;;;;58.33;38.80;;;26.90;63.20;;;;;;4751746;55;21572;-32
2022/08/31 10:01:45;;;;;;;57.90;38.08;;;26.90;63.30;;;;;;4761799;55;22170;-36
2022/08/31 10:08:14;;;;;;;49.95;37.50;;;27.00;63.20;;;;;;4751513;55;21015;-36
2022/08/31 10:14:52;;;;;;;47.15;35.90;;;27.00;63.70;;;;;;4763921;55;22374;-34
2022/08/31 10:20:11;;;;;;;49.58;35.55;;;27.10;64.10;;;;;;4748163;55;20996;-28
2022/08/31 10:32:02;;;;;;;46.22;33.60;;;27.10;65.10;;;;;;4755713;55;21560;-34
2022/08/31 10:37:11;;;;;;;43.63;33.00;;;27.20;65.10;;;;;;4736375;59;21052;-30
2022/08/31 10:42:28;;;;;;;42.92;33.47;;;27.20;65.50;;;;;;4741282;55;21827;-31
2022/08/31 10:47:40;;;;;;;40.33;32.17;;;27.30;65.80;;;;;;4735894;59;21458;-35
2022/08/31 10:52:55;;;;;;;37.00;30.17;;;27.30;65.90;;;;;;4794167;55;21470;-33
2022/08/31 11:01:54;;;;;;;40.90;31.77;;;27.30;66.00;;;;;;4765576;55;21577;-28
2022/08/31 11:10:50;;;;;;;36.30;28.35;;;27.30;66.40;;;;;;4738183;55;21032;-27
2022/08/31 11:18:01;;;;;;;38.72;28.42;;;27.30;66.90;;;;;;4748107;55;21461;-33
2022/08/31 11:23:30;;;;;;;35.88;28.55;;;27.30;66.10;;;;;;4761377;55;21059;-27
2022/08/31 11:28:40;;;;;;;30.40;26.75;;;27.30;65.70;;;;;;4738053;55;21557;-27
2022/08/31 11:33:55;;;;;;;33.72;27.52;;;27.30;65.30;;;;;;4748716;55;20979;-32
2022/08/31 11:47:06;;;;;;;38.03;27.25;;;27.30;65.30;;;;;;4736448;55;21047;-31
2022/08/31 11:52:13;;;;;;;;;;;27.30;65.20;;;;;;4783271;55;21019;-32
2022/08/31 11:57:19;;;;;;;36.00;27.87;;;27.20;65.80;;;;;;4761200;55;20755;-32
2022/08/31 12:02:44;;;;;;;39.42;29.40;;;27.20;64.90;;;;;;4790127;55;20944;-27
2022/08/31 12:07:47;;;;;;;38.30;28.92;;;27.20;64.40;;;;;;4794434;55;21612;-29
2022/08/31 12:13:52;;;;;;;40.83;29.27;;;27.20;63.30;;;;;;4748609;55;21079;-28
2022/08/31 12:25:29;;;;;;;44.10;31.37;;;27.20;64.20;;;;;;4735759;55;21027;-36
2022/08/31 12:30:30;;;;;;;42.05;30.45;;;27.30;64.30;;;;;;4759692;55;21486;-28
2022/08/31 12:35:32;;;;;;;39.90;29.87;;;27.20;63.70;;;;;;4736875;59;21012;-28
2022/08/31 12:40:41;;;;;;;33.70;26.23;;;27.30;62.80;;;;;;4740920;55;21079;-28
2022/08/31 12:49:02;;;;;;;32.05;25.60;;;27.20;62.50;;;;;;4741317;55;21152;-28
2022/08/31 12:54:49;;;;;;;32.03;26.23;;;27.20;62.50;;;;;;4759620;55;21112;-27
2022/08/31 13:00:50;;;;;;;37.70;30.92;;;27.20;63.20;;;;;;4784091;55;21080;-32
2022/08/31 13:06:08;;;;;;;36.60;30.02;;;27.20;63.10;;;;;;4755366;55;21123;-27
2022/08/31 13:12:19;;;;;;;35.65;31.42;;;27.30;63.30;;;;;;4778915;55;20964;-29
2022/08/31 13:17:20;;;;;;;36.00;28.75;;;27.30;63.30;;;;;;4735673;59;21000;-27
2022/08/31 13:22:40;;;;;;;35.83;29.67;;;27.30;63.10;;;;;;4790789;55;20983;-28
2022/08/31 13:27:51;;;;;;;38.60;29.48;;;27.30;62.50;;;;;;5123490;55;21099;-28
2022/08/31 13:32:55;;;;;;;33.78;27.77;;;27.20;62.30;;;;;;4745133;55;21079;-33
2022/08/31 13:38:08;;;;;;;33.65;26.90;;;27.30;62.30;;;;;;4751467;55;21536;-28
2022/08/31 13:43:15;;;;;;;27.25;23.62;;;27.30;62.20;;;;;;4745931;55;21174;-30
2022/08/31 13:48:30;;;;;;;30.30;25.23;;;27.20;62.10;;;;;;4736614;55;20999;-27
2022/08/31 13:54:26;;;;;;;32.97;28.10;;;27.30;61.90;;;;;;4762602;55;20988;-26
2022/08/31 13:59:31;;;;;;;32.83;28.08;;;27.30;61.70;;;;;;4745017;55;21258;-27
2022/08/31 14:05:02;;;;;;;32.40;28.67;;;27.30;61.60;;;;;;4747876;55;21071;-28
2022/08/31 14:11:09;;;;;;;41.67;29.17;;;27.30;61.60;;;;;;4759393;55;21525;-32
2022/08/31 14:16:22;;;;;;;39.22;28.05;;;27.30;61.50;;;;;;4772754;55;21497;-29
2022/08/31 14:21:33;;;;;;;41.40;28.10;;;27.30;61.40;;;;;;4753505;55;21095;-27
2022/08/31 14:26:37;;;;;;;34.92;26.25;;;27.30;61.30;;;;;;4743852;55;21501;-29
2022/08/31 14:31:50;;;;;;;34.83;26.25;;;27.30;61.60;;;;;;4741777;55;21580;-26
2022/08/31 14:37:06;;;;;;;29.90;24.87;;;27.30;61.90;;;;;;4736545;59;21493;-28
2022/08/31 14:42:23;;;;;;;31.67;24.98;;;27.20;62.40;;;;;;4753822;55;21234;-33
2022/08/31 14:47:27;;;;;;;28.33;24.00;;;27.20;62.60;;;;;;4747180;55;21039;-29
2022/08/31 14:52:27;;;;;;;27.98;23.95;;;27.20;62.90;;;;;;4736441;59;21023;-28
2022/08/31 14:57:31;;;;;;;28.65;22.80;;;27.20;63.10;;;;;;4762960;55;21067;-28
2022/08/31 15:02:33;;;;;;;27.80;23.87;;;27.10;63.30;;;;;;4740598;55;21103;-29
2022/08/31 15:07:37;;;;;;;25.23;22.52;;;27.10;63.50;;;;;;4735431;55;21044;-27
2022/08/31 15:12:39;;;;;;;27.48;22.52;;;27.10;63.70;;;;;;4752443;55;21604;-30
2022/08/31 15:17:40;;;;;;;25.60;22.73;;;27.10;63.80;;;;;;4750916;55;21523;-28
2022/08/31 15:22:41;;;;;;;24.63;21.73;;;27.10;63.90;;;;;;4750901;55;21019;-30
2022/08/31 15:27:43;;;;;;;24.65;21.85;;;27.10;64.00;;;;;;4750387;55;21543;-32
2022/08/31 15:32:46;;;;;;;23.90;21.48;;;27.10;64.10;;;;;;4751961;55;21509;-38
2022/08/31 15:37:57;;;;;;;26.30;21.45;;;27.00;64.10;;;;;;4746205;55;21493;-30
2022/08/31 15:43:00;;;;;;;24.40;21.60;;;27.00;64.10;;;;;;4736219;59;21533;-25
2022/08/31 15:53:22;;;;;;;24.05;21.65;;;27.00;64.30;;;;;;4736184;55;21015;-35
2022/08/31 15:58:29;;;;;;;24.35;21.45;;;27.00;64.40;;;;;;4735485;59;21559;-27
2022/08/31 16:03:30;;;;;;;23.17;20.75;;;27.00;64.50;;;;;;4764956;55;21493;-27
2022/08/31 16:08:31;;;;;;;24.12;21.62;;;27.00;64.60;;;;;;4739352;55;20991;-27
2022/08/31 16:13:32;;;;;;;23.92;21.40;;;27.00;64.60;;;;;;4756009;55;20988;-31
2022/08/31 16:18:32;;;;;;;23.00;20.65;;;27.00;64.70;;;;;;4735464;59;20991;-27
2022/08/31 16:23:34;;;;;;;22.80;20.48;;;27.00;64.70;;;;;;4784902;55;20988;-27
2022/08/31 16:28:35;;;;;;;22.58;20.17;;;27.00;64.80;;;;;;4759598;55;21445;-29
2022/08/31 16:33:36;;;;;;;23.80;21.35;;;27.00;64.90;;;;;;4736764;55;20991;-27
2022/08/31 16:38:37;;;;;;;21.70;19.50;;;26.90;64.90;;;;;;4740450;55;21007;-27
2022/08/31 16:43:39;;;;;;;24.80;20.45;;;26.90;64.90;;;;;;4767865;55;21490;-28
2022/08/31 16:54:02;;;;;;;22.33;19.92;;;26.90;64.90;;;;;;4760825;55;21047;-28
2022/08/31 16:59:03;;;;;;;21.42;19.23;;;26.90;64.90;;;;;;4735836;55;21111;-27
2022/08/31 17:04:10;;;;;;;22.55;20.25;;;26.90;64.90;;;;;;4764988;55;21108;-28
2022/08/31 17:09:23;;;;;;;22.52;20.15;;;26.90;64.90;;;;;;4736216;59;21079;-32
2022/08/31 17:14:31;;;;;;;22.27;20.05;;;26.90;65.00;;;;;;4740046;55;20984;-36
2022/08/31 17:19:33;;;;;;;20.85;18.75;;;26.90;64.80;;;;;;4776748;55;21572;-29
2022/08/31 17:24:44;;;;;;;21.33;19.33;;;26.90;64.90;;;;;;4747734;55;20995;-28
2022/08/31 17:29:47;;;;;;;22.20;19.80;;;26.90;64.90;;;;;;4746106;55;21541;-27
2022/08/31 17:34:49;;;;;;;21.98;19.67;;;26.90;64.90;;;;;;4755581;55;21044;-34
2022/08/31 17:39:53;;;;;;;21.05;19.05;;;26.90;64.90;;;;;;4736535;55;21476;-36
2022/08/31 17:44:56;;;;;;;21.17;18.98;;;26.90;64.90;;;;;;4745534;55;21003;-32
2022/08/31 17:49:58;;;;;;;21.12;18.92;;;26.90;64.90;;;;;;4744069;55;21516;-32
2022/08/31 17:54:59;;;;;;;20.85;18.75;;;26.90;64.90;;;;;;4763513;55;21024;-32
2022/08/31 17:59:59;;;;;;;20.00;17.98;;;26.90;64.90;;;;;;4765007;55;21048;-36
2022/08/31 18:05:01;;;;;;;19.92;17.92;;;26.90;64.90;;;;;;4758579;55;21047;-35
2022/08/31 18:10:02;;;;;;;19.65;17.67;;;26.90;64.90;;;;;;4783553;55;21580;-31
2022/08/31 18:15:04;;;;;;;21.25;19.02;;;26.90;64.90;;;;;;4757525;55;21039;-31
2022/08/31 18:20:06;;;;;;;20.67;18.67;;;26.90;64.90;;;;;;4807368;55;21039;-29
2022/08/31 18:25:07;;;;;;;20.95;18.95;;;26.90;64.90;;;;;;4737001;59;21528;-35
2022/08/31 18:30:13;;;;;;;20.67;18.50;;;26.90;64.90;;;;;;4803010;55;21047;-27
2022/08/31 18:35:16;;;;;;;20.42;18.37;;;26.80;64.90;;;;;;4746450;55;21446;-38
2022/08/31 18:45:36;;;;;;;20.73;18.60;;;26.80;64.80;;;;;;4761302;55;21656;-27
2022/08/31 18:50:37;;;;;;;20.60;18.50;;;26.90;64.90;;;;;;4751550;55;21005;-31
2022/08/31 18:55:39;;;;;;;18.85;17.00;;;26.80;64.80;;;;;;4742699;55;21513;-26
2022/08/31 19:00:40;;;;;;;19.95;18.00;;;26.90;64.90;;;;;;4805162;55;21477;-33
2022/08/31 19:05:41;;;;;;;19.60;17.60;;;26.80;64.90;;;;;;4749083;55;21015;-31
2022/08/31 19:10:42;;;;;;;19.92;17.92;;;26.80;64.90;;;;;;4738501;55;21027;-27
2022/08/31 19:15:42;;;;;;;19.15;17.27;;;26.80;65.00;;;;;;4753231;55;21604;-29
2022/08/31 19:20:43;;;;;;;18.75;16.85;;;26.80;64.90;;;;;;4792387;55;21023;-33
2022/08/31 19:25:46;;;;;;;19.02;17.23;;;26.80;64.90;;;;;;4741744;55;20979;-28
2022/08/31 19:30:47;;;;;;;18.33;16.48;;;26.80;64.90;;;;;;4766421;55;21476;-31
2022/08/31 19:35:59;;;;;;;17.70;15.90;;;26.80;64.90;;;;;;4765080;55;21529;-34
2022/08/31 19:41:00;;;;;;;18.55;16.75;;;26.80;65.00;;;;;;4804216;55;21043;-37
2022/08/31 19:46:10;;;;;;;18.12;16.33;;;26.80;65.00;;;;;;4766587;55;21541;-27
2022/08/31 19:51:14;;;;;;;18.55;16.75;;;26.80;65.00;;;;;;4759047;55;21450;-27
2022/08/31 19:56:20;;;;;;;20.00;16.00;;;26.80;65.00;;;;;;4768145;55;21481;-30
2022/08/31 20:01:24;;;;;;;18.25;16.02;;;26.80;65.10;;;;;;4766488;55;21043;-31
2022/08/31 20:06:25;;;;;;;17.17;15.48;;;26.80;65.00;;;;;;4764483;55;21496;-29
2022/08/31 20:11:28;;;;;;;16.67;15.07;;;26.80;65.10;;;;;;4769349;55;21035;-27
2022/08/31 20:16:31;;;;;;;17.83;15.95;;;26.80;65.10;;;;;;4763673;55;21007;-37
2022/08/31 20:21:34;;;;;;;18.00;16.20;;;26.80;65.10;;;;;;4761509;55;21008;-26
2022/08/31 20:26:37;;;;;;;17.00;15.38;;;26.80;65.10;;;;;;4830306;55;21035;-27
2022/08/31 20:31:42;;;;;;;16.90;15.15;;;26.80;65.20;;;;;;4753385;55;21098;-27
2022/08/31 20:36:44;;;;;;;16.50;14.87;;;26.80;65.20;;;;;;4756040;55;21027;-30
2022/08/31 20:41:47;;;;;;;16.65;14.95;;;26.80;65.80;;;;;;4748995;55;20976;-32
2022/08/31 20:52:17;;;;;;;16.73;15.02;;;26.80;65.40;;;;;;4736370;55;21067;-27
2022/08/31 20:57:19;;;;;;;15.88;14.27;;;26.80;65.30;;;;;;4750873;55;21004;-34
2022/08/31 21:02:21;;;;;;;15.63;14.05;;;26.80;65.30;;;;;;4750025;55;20991;-32
2022/08/31 21:07:22;;;;;;;16.48;14.87;;;26.80;65.40;;;;;;4774979;55;21504;-32
2022/08/31 21:12:24;;;;;;;16.62;15.05;;;26.80;65.40;;;;;;4747772;55;21450;-32
2022/08/31 21:17:25;;;;;;;16.10;14.32;;;26.80;65.40;;;;;;4748282;55;21074;-29
2022/08/31 21:22:26;;;;;;;14.87;13.48;;;26.80;65.40;;;;;;4752864;55;21008;-34
2022/08/31 21:27:28;;;;;;;15.70;13.68;;;26.80;65.50;;;;;;4735968;59;21481;-32
2022/08/31 21:32:29;;;;;;;15.50;14.00;;;26.80;65.40;;;;;;4736745;59;21553;-30
2022/08/31 21:37:30;;;;;;;15.38;13.88;;;26.80;65.50;;;;;;4738023;55;21118;-33
2022/08/31 21:42:31;;;;;;;15.65;14.18;;;26.80;65.50;;;;;;4736239;59;21530;-26
2022/08/31 21:47:33;;;;;;;14.18;12.82;;;26.80;65.50;;;;;;4797799;55;21011;-28
2022/08/31 21:52:34;;;;;;;14.52;13.13;;;26.80;65.50;;;;;;4775347;55;21529;-31
2022/08/31 21:57:35;;;;;;;15.30;13.77;;;26.80;65.60;;;;;;4766267;55;21485;-28
2022/08/31 22:02:36;;;;;;;14.75;13.45;;;26.80;65.60;;;;;;4755543;55;21544;-36
2022/08/31 22:07:38;;;;;;;15.05;13.65;;;26.80;65.70;;;;;;4743562;55;21015;-27
2022/08/31 22:12:39;;;;;;;14.02;12.65;;;26.80;65.70;;;;;;4771725;55;21461;-30
2022/08/31 22:17:40;;;;;;;14.68;13.27;;;26.80;65.70;;;;;;4745589;55;21114;-27
2022/08/31 22:22:41;;;;;;;14.57;13.18;;;26.80;65.70;;;;;;4748584;55;21537;-36
2022/08/31 22:27:42;;;;;;;14.27;12.98;;;26.80;65.80;;;;;;4736509;55;20991;-29
2022/08/31 22:32:45;;;;;;;14.18;12.77;;;26.80;65.70;;;;;;4746038;55;21007;-30
2022/08/31 22:37:46;;;;;;;14.15;12.75;;;26.80;65.80;;;;;;4745369;55;21493;-31
2022/08/31 22:42:49;;;;;;;14.52;13.15;;;26.80;65.80;;;;;;4741962;55;21047;-39
2022/08/31 22:47:50;;;;;;;14.57;13.07;;;26.80;65.80;;;;;;4764698;55;21055;-35
2022/08/31 22:52:51;;;;;;;13.60;12.35;;;26.70;65.80;;;;;;4737316;55;21004;-27
2022/08/31 22:57:51;;;;;;;13.25;12.05;;;26.70;65.80;;;;;;4736136;59;21083;-38
2022/08/31 23:02:53;;;;;;;13.30;12.05;;;26.70;65.80;;;;;;4752582;55;20991;-33
2022/08/31 23:07:54;;;;;;;13.15;11.85;;;26.70;65.80;;;;;;4765136;55;21536;-25
2022/08/31 23:12:56;;;;;;;13.55;12.25;;;26.70;65.90;;;;;;4740209;55;20999;-27
2022/08/31 23:17:57;;;;;;;12.85;11.55;;;26.70;65.90;;;;;;4781517;55;21476;-34
2022/08/31 23:22:59;;;;;;;13.50;12.20;;;26.70;65.90;;;;;;4740125;55;20991;-27
2022/08/31 23:28:01;;;;;;;13.52;12.13;;;26.70;65.90;;;;;;4737560;55;21605;-36
2022/08/31 23:33:01;;;;;;;13.18;11.88;;;26.70;65.90;;;;;;4737663;55;21457;-29
2022/08/31 23:38:02;;;;;;;12.98;11.77;;;26.70;66.00;;;;;;4737088;55;21035;-33
2022/08/31 23:43:06;;;;;;;13.15;11.88;;;26.70;65.90;;;;;;4775714;55;21060;-28
2022/08/31 23:48:08;;;;;;;12.55;11.35;;;26.70;65.90;;;;;;4771624;55;21469;-30
2022/08/31 23:53:13;;;;;;;13.30;12.02;;;26.70;66.60;;;;;;4736693;59;21058;-28
2022/08/31 23:58:16;;;;;;;12.88;11.60;;;26.70;66.00;;;;;;4735980;59;21583;-34
